createdAt,value
2023-04-15T00:09:38.223Z,18.84
2023-04-15T00:19:39.563Z,18.78
2023-04-15T00:29:40.791Z,18.77
2023-04-15T00:39:42.044Z,18.79
2023-04-15T00:49:43.284Z,18.78
2023-04-15T00:59:44.528Z,18.81
2023-04-15T01:09:45.827Z,18.74
2023-04-15T01:19:47.091Z,18.74
2023-04-15T01:29:48.332Z,18.71
2023-04-15T01:39:49.629Z,18.71
2023-04-15T01:49:50.876Z,18.79
2023-04-15T01:59:52.115Z,18.71
2023-04-15T02:09:53.377Z,18.66
2023-04-15T02:19:54.596Z,18.68
2023-04-15T02:29:55.862Z,18.71
2023-04-15T02:39:57.112Z,18.65
2023-04-15T02:49:58.404Z,18.63
2023-04-15T02:59:59.700Z,18.66
2023-04-15T03:10:01.094Z,18.64
2023-04-15T03:20:02.448Z,18.61
2023-04-15T03:30:03.797Z,18.65
2023-04-15T03:40:05.028Z,18.63
2023-04-15T03:50:06.361Z,18.63
2023-04-15T04:00:07.654Z,18.62
2023-04-15T04:10:08.956Z,18.60
2023-04-15T04:20:10.228Z,18.63
2023-04-15T04:30:11.553Z,18.59
2023-04-15T04:40:12.847Z,18.57
2023-04-15T04:50:14.121Z,18.60
2023-04-15T05:00:15.375Z,18.51
2023-04-15T05:10:16.628Z,18.61
2023-04-15T05:20:17.892Z,18.68
2023-04-15T05:30:19.180Z,18.66
2023-04-15T05:40:26.767Z,18.67
2023-04-15T05:50:29.342Z,18.72
2023-04-15T06:00:30.619Z,18.70
2023-04-15T06:10:31.917Z,18.85
2023-04-15T06:20:33.206Z,18.97
2023-04-15T06:30:34.486Z,18.95
2023-04-15T06:51:07.660Z,19.12
2023-04-15T07:01:31.819Z,19.12
2023-04-15T07:11:39.810Z,19.10
2023-04-15T07:21:42.007Z,19.90
2023-04-15T07:31:43.383Z,19.72
2023-04-15T07:41:44.635Z,19.46
2023-04-15T07:51:46.199Z,19.42
2023-04-15T08:01:53.884Z,19.39
2023-04-15T08:12:01.742Z,19.36
2023-04-15T08:22:11.229Z,19.36
2023-04-15T08:32:19.857Z,19.30
2023-04-15T08:42:27.785Z,19.27
2023-04-15T08:52:35.783Z,19.26
2023-04-15T09:02:43.896Z,19.22
2023-04-15T09:12:51.825Z,19.24
2023-04-15T09:22:59.791Z,19.20
2023-04-15T09:33:07.840Z,19.22
2023-04-15T09:43:18.704Z,19.21
2023-04-15T09:53:23.990Z,19.20
2023-04-15T10:03:32.020Z,19.19
2023-04-15T10:13:43.654Z,19.20
2023-04-15T10:23:48.963Z,19.20
2023-04-15T10:33:56.995Z,19.18
2023-04-15T10:44:04.997Z,19.16
2023-04-15T10:54:12.845Z,19.22
2023-04-15T11:14:42.808Z,19.21
2023-04-15T11:24:44.157Z,19.20
2023-04-15T11:34:45.896Z,19.22
2023-04-15T11:44:56.892Z,19.29
2023-04-15T12:05:26.861Z,19.29
2023-04-15T12:15:28.126Z,19.34
2023-04-15T12:25:33.245Z,19.28
2023-04-15T12:35:41.130Z,19.30
2023-04-15T12:45:43.850Z,19.32
2023-04-15T12:55:52.815Z,19.31
2023-04-15T13:06:00.844Z,19.37
2023-04-15T13:16:08.845Z,19.33
2023-04-15T13:26:16.848Z,19.30
2023-04-15T13:36:25.818Z,19.31
2023-04-15T13:56:56.378Z,19.27
2023-04-15T14:06:57.670Z,19.27
2023-04-15T14:16:59.010Z,19.29
2023-04-15T14:37:48.657Z,19.29
2023-04-15T14:47:50.077Z,19.28
2023-04-15T15:08:20.098Z,19.37
2023-04-15T15:18:21.332Z,19.37
2023-04-15T15:28:22.908Z,19.40
2023-04-15T15:38:24.404Z,19.41
2023-04-15T15:48:25.800Z,19.38
2023-04-15T15:58:28.192Z,19.36
2023-04-15T16:08:29.794Z,19.28
2023-04-15T16:18:37.873Z,19.31
2023-04-15T16:28:50.610Z,19.31
2023-04-15T16:38:59.151Z,19.30
2023-04-15T16:49:03.026Z,19.27
2023-04-15T16:59:10.877Z,19.17
2023-04-15T17:09:23.105Z,19.13
2023-04-15T17:19:28.303Z,19.09
2023-04-15T17:29:35.920Z,19.03
2023-04-15T17:39:44.025Z,19.03
2023-04-15T17:49:51.901Z,19.01
2023-04-15T18:00:00.914Z,19.00
2023-04-15T18:10:08.255Z,18.95
2023-04-15T18:20:16.922Z,18.92
2023-04-15T18:30:18.237Z,18.90
2023-04-15T18:40:19.906Z,18.86
2023-04-15T18:50:21.159Z,18.84
2023-04-15T19:00:22.417Z,18.83
2023-04-15T19:10:23.791Z,18.78
2023-04-15T19:20:25.074Z,18.76
2023-04-15T19:30:26.299Z,18.74
2023-04-15T19:40:27.551Z,18.75
2023-04-15T19:50:28.826Z,18.72
2023-04-15T20:00:30.091Z,18.71
2023-04-15T20:10:31.382Z,18.73
2023-04-15T20:20:32.667Z,18.68
2023-04-15T20:30:33.928Z,18.65
2023-04-15T20:40:35.166Z,18.66
2023-04-15T20:50:36.474Z,18.62
2023-04-15T21:00:37.775Z,18.65
2023-04-15T21:10:39.045Z,18.60
2023-04-15T21:20:40.290Z,18.60
2023-04-15T21:30:41.550Z,18.59
2023-04-15T21:40:42.856Z,18.52
2023-04-15T21:50:44.170Z,18.64
2023-04-15T22:00:45.431Z,18.66
2023-04-15T22:10:46.678Z,18.65
2023-04-15T22:20:47.962Z,18.72
2023-04-15T22:30:49.218Z,18.67
2023-04-15T22:40:50.463Z,18.66
2023-04-15T22:50:51.736Z,18.66
2023-04-15T23:00:52.972Z,18.65
2023-04-15T23:10:54.209Z,18.63
2023-04-15T23:20:55.496Z,18.64
2023-04-15T23:30:58.020Z,18.63
2023-04-15T23:41:01.058Z,18.64
2023-04-15T23:51:02.380Z,18.64
